Amberg, WI

7:45 AM CDT on July 29, 2014 (GMT -0500)
Wiggins Lake (KWIPEMBI2) Elev 997 ft | 45.61 °N, 88.01 °W | Change Station

Current weather conditions updated 9 seconds ago

Clear
Clear
58.8 °F
Feels Like 58.8 °F
N
0.0
Wind Variable Wind from WNW
Gusts 0.0 mph

Today is forecast to be nearly the same temperature as yesterday. Scattered thunderstorms possible.

Today
High -- | Low -- °F
--% Chance of Precip.
Yesterday
High -- | Low -- °F
Precip. -- in
5:32 AM 8:23 PM
Waxing Crescent, 6% visible
Pressure 30.00 in
Visibility 10.0 miles
Clouds Clear
Dew Point 54 °F
Humidity 84%
Rainfall 0.00 in
Snow Depth Not available.
UV 1 out of 12
Pollen 7.00 out of 12
Air Quality Not available.
Flu Activity Not available.
METAR KIMT 291154Z AUTO 28005KT 10SM CLR 13/11 A2999 RMK AO2 SLP157 T01330106 10150 20117 52004

More Conditions Fewer Conditions

Pressure 30.00 in
Visibility 10.0 miles
Clouds Clear
Dew Point 54 °F
Humidity 84%
Rainfall 0.00 in
Snow Depth Not available.
UV 1 out of 12
Pollen 7.00 out of 12
Air Quality Not available.
Flu Activity Not available.
METAR KIMT 291154Z AUTO 28005KT 10SM CLR 13/11 A2999 RMK AO2 SLP157 T01330106 10150 20117 52004

More Conditions Fewer Conditions

10-Day Weather Forecast

Almanac

Astronomy

Jul. 29, 2014 Rise Set
Actual Time 5:32 AM CDT 8:23 PM CDT
Civil Twilight 4:57 AM CDT 8:57 PM CDT
Nautical Twilight 4:13 AM CDT 9:41 PM CDT
Astronomical Twilight 3:21 AM CDT 10:33 PM CDT
Moon 8:18 AM CDT 9:23 PM CDT
Length of Visible Light 16h 00m
Length of Day
14h 51m
Tomorrow will be 2m 21s shorter.
Waxing Crescent, 6% of the Moon is Illuminated
Today
Waxing Crescent
Aug 3
First Quarter
Aug 10
Full
Aug 17
Last Quarter
Aug 25
New

Today's Extremes

State Highs State Lows

Community

WunderPhotos

Upload Photos

1,738,705 photos uploaded!

Nearby

Snow Depth

Station Depth Elevation
No new snow has been reported.

Earthquake Activity

City Distance Mag. Time & Date
No recent earthquake activity has been reported nearby.
Minimum magnitude displayed is 2.5.

Coastal Water Temperatures

Place Temperature
No Stations Reporting

Nearby Weather Stations

Station Location Temp. Dew Point Humidity Wind Precip. Elev Updated Type
Wiggins Lake, Pembine, WI 58.8 °F 54 °F 84% WNW  at  0.0 mph 0.00 in / hr 997 ft 7:44 AM CDT Rapid Fire
Athelstane Township, Athelstane, WI 58.6 °F 53 °F 81% West  at  4.6 mph 0.00 in / hr 966 ft 7:44 AM CDT Rapid Fire
Downtown, Norway, MI 60.3 °F 54 °F 80% NNW  at  9.2 mph 0.00 in / hr 942 ft 7:45 AM CDT Rapid Fire
Norway, MI 58.4 °F 54 °F 86% North  at  2.0 mph 0.00 in / hr 1010 ft 7:41 AM CDT Normal
Spalding Pine Ave, Spalding, MI 58.3 °F 55 °F 88% WSW  at  1.7 mph 0.00 in / hr 853 ft 7:44 AM CDT Rapid Fire

Show More Stations Show Fewer Stations